Time;durP1;ratioP1;P1;durP2;ratioP2;P2;SDS_P1;SDS_P2;PMS_P1;PMS_P2;Temp;Humidity;BMP_temperature;BMP_pressure;BME280_temperature;BME280_humidity;BME280_pressure;Samples;Min_cycle;Max_cycle;Signal;HPM_P1;HPM_P2
2021/07/31 00:00:30;;;;;;;3.10;2.80;;;16.90;99.90;;;;;;4989226;28;20470;-59
2021/07/31 00:02:57;;;;;;;3.07;2.63;;;16.90;99.90;;;;;;4982594;28;20577;-60
2021/07/31 00:05:24;;;;;;;5.07;2.60;;;16.90;99.90;;;;;;4985078;28;20493;-59
2021/07/31 00:07:53;;;;;;;2.50;2.30;;;16.80;99.90;;;;;;4992121;28;20960;-59
2021/07/31 00:10:20;;;;;;;5.80;2.80;;;16.70;99.90;;;;;;4988071;28;20475;-59
2021/07/31 00:12:47;;;;;;;4.13;2.93;;;16.60;99.90;;;;;;4988001;28;20544;-59
2021/07/31 00:15:14;;;;;;;6.03;2.40;;;16.60;99.90;;;;;;4987311;28;20469;-60
2021/07/31 00:17:41;;;;;;;5.30;3.47;;;16.50;99.90;;;;;;4993242;28;20465;-60
2021/07/31 00:20:09;;;;;;;7.73;3.20;;;16.50;99.90;;;;;;4989789;28;20541;-60
2021/07/31 00:22:36;;;;;;;5.67;3.90;;;16.50;99.90;;;;;;4990345;28;21028;-59
2021/07/31 00:25:06;;;;;;;3.80;2.60;;;16.50;99.90;;;;;;4986570;28;20896;-59
2021/07/31 00:27:33;;;;;;;2.90;2.60;;;16.40;99.90;;;;;;4980743;28;20528;-61
2021/07/31 00:30:00;;;;;;;4.33;3.07;;;16.40;99.90;;;;;;4983808;28;20469;-59
2021/07/31 00:32:29;;;;;;;8.47;3.20;;;16.40;99.90;;;;;;4990826;28;20470;-60
2021/07/31 00:34:56;;;;;;;7.60;2.50;;;16.40;99.90;;;;;;4984714;28;20469;-59
2021/07/31 00:37:23;;;;;;;6.90;2.63;;;16.40;99.90;;;;;;4984381;28;20531;-59
2021/07/31 00:39:50;;;;;;;5.47;2.60;;;16.40;99.90;;;;;;4987193;28;20468;-59
2021/07/31 00:42:19;;;;;;;3.93;3.00;;;16.40;99.90;;;;;;4986020;28;20528;-59
2021/07/31 00:44:46;;;;;;;5.23;3.10;;;16.40;99.90;;;;;;4983844;28;20469;-60
2021/07/31 00:47:19;;;;;;;3.57;3.27;;;16.40;99.90;;;;;;4990511;28;20502;-59
2021/07/31 00:49:49;;;;;;;4.20;2.90;;;16.40;99.90;;;;;;4985375;28;20824;-59
2021/07/31 00:52:15;;;;;;;7.20;2.50;;;16.50;99.90;;;;;;4984713;28;20461;-59
2021/07/31 00:54:43;;;;;;;5.13;3.30;;;16.50;99.90;;;;;;4997103;28;20551;-60
2021/07/31 00:57:12;;;;;;;10.77;4.17;;;16.50;99.90;;;;;;4991677;28;20519;-59
2021/07/31 00:59:41;;;;;;;4.60;2.97;;;16.50;99.90;;;;;;4996774;28;20523;-59
2021/07/31 01:02:08;;;;;;;3.63;2.80;;;16.50;99.90;;;;;;4989625;28;20886;-57
2021/07/31 01:04:38;;;;;;;5.70;3.60;;;16.40;99.90;;;;;;4988064;28;20473;-59
2021/07/31 01:07:05;;;;;;;6.73;2.80;;;16.40;99.90;;;;;;4990855;28;20820;-59
2021/07/31 01:09:35;;;;;;;4.13;3.30;;;16.40;99.90;;;;;;4996909;28;20465;-59
2021/07/31 01:12:06;;;;;;;6.13;3.93;;;16.40;99.90;;;;;;4993598;28;20462;-59
2021/07/31 01:14:33;;;;;;;6.50;2.83;;;16.40;99.90;;;;;;4984035;28;20474;-60
2021/07/31 01:17:03;;;;;;;4.87;2.80;;;16.40;99.90;;;;;;4985005;28;20475;-59
2021/07/31 01:19:30;;;;;;;5.10;2.87;;;16.40;99.90;;;;;;4986375;28;20465;-59
2021/07/31 01:21:58;;;;;;;4.13;3.17;;;16.30;99.90;;;;;;4993926;28;20984;-58
2021/07/31 01:24:25;;;;;;;3.90;2.93;;;16.30;99.90;;;;;;4988403;28;20465;-59
2021/07/31 01:26:52;;;;;;;4.70;3.23;;;16.30;99.90;;;;;;4999887;28;20497;-59
2021/07/31 01:29:20;;;;;;;3.07;2.73;;;16.30;99.90;;;;;;5000245;28;20469;-58
2021/07/31 01:31:47;;;;;;;4.80;3.87;;;16.30;99.90;;;;;;4999656;28;20817;-58
2021/07/31 01:34:14;;;;;;;8.03;3.07;;;16.30;99.90;;;;;;4999978;28;20873;-58
2021/07/31 01:36:42;;;;;;;5.33;3.00;;;16.30;99.90;;;;;;4992125;28;20457;-57
2021/07/31 01:39:10;;;;;;;5.47;3.57;;;16.30;99.90;;;;;;4998686;28;20527;-59
2021/07/31 01:41:38;;;;;;;3.17;2.43;;;16.30;99.90;;;;;;4998035;28;20998;-59
2021/07/31 01:44:05;;;;;;;4.83;2.90;;;16.30;99.90;;;;;;4999217;28;20464;-56
2021/07/31 01:46:32;;;;;;;4.30;2.90;;;16.20;99.90;;;;;;4999387;28;20864;-58
2021/07/31 01:49:02;;;;;;;9.73;3.27;;;16.20;99.90;;;;;;4999705;28;20585;-58
2021/07/31 01:51:29;;;;;;;5.70;2.70;;;16.30;99.90;;;;;;5000111;28;20470;-57
2021/07/31 01:53:59;;;;;;;4.27;2.57;;;16.20;99.90;;;;;;4998464;28;20469;-55
2021/07/31 01:56:30;;;;;;;4.23;2.53;;;16.10;99.90;;;;;;4999530;28;20745;-58
2021/07/31 01:58:57;;;;;;;5.83;3.47;;;16.10;99.90;;;;;;4999382;28;20797;-59
2021/07/31 02:01:24;;;;;;;6.47;3.00;;;16.10;99.90;;;;;;4999321;28;20468;-58
2021/07/31 02:03:51;;;;;;;5.23;3.07;;;16.10;99.90;;;;;;4992351;28;20524;-58
2021/07/31 02:06:18;;;;;;;6.37;2.97;;;16.00;99.90;;;;;;4995739;28;20497;-58
2021/07/31 02:08:45;;;;;;;3.80;3.00;;;16.00;99.90;;;;;;4998848;28;20490;-57
2021/07/31 02:11:13;;;;;;;4.70;3.30;;;16.00;99.90;;;;;;4999060;28;20523;-58
2021/07/31 02:13:42;;;;;;;4.43;3.03;;;16.00;99.90;;;;;;4998964;28;20498;-58
2021/07/31 02:16:09;;;;;;;3.27;2.73;;;15.90;99.90;;;;;;4999147;28;20461;-57
2021/07/31 02:18:36;;;;;;;6.97;3.00;;;15.90;99.90;;;;;;4999028;28;20803;-58
2021/07/31 02:21:03;;;;;;;5.73;2.97;;;15.90;99.90;;;;;;4998932;28;20870;-58
2021/07/31 02:23:30;;;;;;;5.63;3.20;;;15.90;99.90;;;;;;4998572;28;20523;-59
2021/07/31 02:25:57;;;;;;;6.70;3.17;;;15.90;99.90;;;;;;4998805;28;20497;-59
2021/07/31 02:28:24;;;;;;;3.80;3.40;;;16.00;99.90;;;;;;4998755;28;20468;-59
2021/07/31 02:30:52;;;;;;;4.83;3.43;;;16.00;99.90;;;;;;4998633;28;20468;-58
2021/07/31 02:33:19;;;;;;;6.33;3.63;;;15.90;99.90;;;;;;4998371;28;20519;-57
2021/07/31 02:35:47;;;;;;;3.30;3.00;;;16.00;99.90;;;;;;4998320;28;20465;-53
2021/07/31 02:38:14;;;;;;;7.50;3.10;;;15.90;99.90;;;;;;4998216;28;20469;-57
2021/07/31 02:40:41;;;;;;;3.80;3.10;;;15.90;99.90;;;;;;4998531;28;20464;-56
2021/07/31 02:43:08;;;;;;;3.33;2.93;;;15.80;99.90;;;;;;4998268;28;20756;-60
2021/07/31 02:45:36;;;;;;;5.60;3.47;;;15.90;99.90;;;;;;4998785;28;20517;-58
2021/07/31 02:48:05;;;;;;;5.47;3.30;;;15.90;99.90;;;;;;4998833;28;20615;-59
2021/07/31 02:50:35;;;;;;;9.20;3.13;;;15.90;99.90;;;;;;4998389;28;20781;-58
2021/07/31 02:53:04;;;;;;;4.47;3.40;;;15.90;99.90;;;;;;4998291;28;20528;-58
2021/07/31 02:55:31;;;;;;;4.90;3.40;;;15.90;99.90;;;;;;4999157;28;20523;-56
2021/07/31 02:57:58;;;;;;;4.00;3.40;;;15.90;99.90;;;;;;4997937;28;20457;-57
2021/07/31 03:00:25;;;;;;;3.83;2.90;;;15.90;99.90;;;;;;4997991;28;20465;-56
2021/07/31 03:02:55;;;;;;;5.23;3.03;;;15.80;99.90;;;;;;4993779;28;20485;-55
2021/07/31 03:05:24;;;;;;;9.73;3.57;;;15.80;99.90;;;;;;4992217;28;20465;-57
2021/07/31 03:07:51;;;;;;;5.37;3.00;;;15.80;99.90;;;;;;4991567;28;20501;-58
2021/07/31 03:10:18;;;;;;;4.97;3.40;;;15.80;99.90;;;;;;4997443;28;20468;-56
2021/07/31 03:12:45;;;;;;;8.13;3.40;;;15.80;99.90;;;;;;4994804;28;20453;-56
2021/07/31 03:15:12;;;;;;;5.77;4.00;;;15.80;99.90;;;;;;4990131;28;20465;-57
2021/07/31 03:17:40;;;;;;;4.20;3.23;;;15.80;99.90;;;;;;4997650;28;20468;-57
2021/07/31 03:20:07;;;;;;;5.37;3.20;;;15.80;99.90;;;;;;4998189;28;20908;-58
2021/07/31 03:22:36;;;;;;;6.23;3.23;;;15.80;99.90;;;;;;4997359;28;20465;-59
2021/07/31 03:25:03;;;;;;;3.00;2.73;;;15.90;99.90;;;;;;4997875;28;20528;-60
2021/07/31 03:27:30;;;;;;;4.50;3.20;;;15.80;99.90;;;;;;4998075;28;20551;-58
2021/07/31 03:29:57;;;;;;;2.87;2.63;;;15.80;99.90;;;;;;4997638;28;20439;-58
2021/07/31 03:32:24;;;;;;;7.57;3.43;;;15.80;99.90;;;;;;4997612;28;20492;-57
2021/07/31 03:34:51;;;;;;;7.83;3.40;;;15.80;99.90;;;;;;4997457;28;20472;-58
2021/07/31 03:37:18;;;;;;;3.33;3.00;;;15.80;99.90;;;;;;4997773;28;20523;-58
2021/07/31 03:39:46;;;;;;;7.17;3.70;;;15.80;99.90;;;;;;4990867;28;20535;-58
2021/07/31 03:42:13;;;;;;;6.60;3.20;;;15.70;99.90;;;;;;4997417;28;20469;-57
2021/07/31 03:44:40;;;;;;;6.37;3.57;;;15.80;99.90;;;;;;4997494;28;20468;-55
2021/07/31 03:47:07;;;;;;;9.83;3.10;;;15.80;99.90;;;;;;4997605;28;20829;-54
2021/07/31 03:49:34;;;;;;;4.00;2.40;;;15.80;99.90;;;;;;4997442;28;20528;-57
2021/07/31 03:52:04;;;;;;;3.70;3.13;;;15.80;99.90;;;;;;4997656;28;20472;-56
2021/07/31 03:54:37;;;;;;;4.30;2.97;;;15.80;99.90;;;;;;4997384;28;20563;-56
2021/07/31 03:57:06;;;;;;;5.27;3.20;;;15.70;99.90;;;;;;4997525;28;20891;-56
2021/07/31 03:59:33;;;;;;;11.40;3.20;;;15.70;99.90;;;;;;4997122;28;20559;-59
2021/07/31 04:02:02;;;;;;;7.33;3.10;;;15.70;99.90;;;;;;4997600;28;20890;-56
2021/07/31 04:04:29;;;;;;;3.23;2.87;;;15.70;99.90;;;;;;4988278;28;20501;-56
2021/07/31 04:06:59;;;;;;;5.03;3.30;;;15.70;99.90;;;;;;4989782;28;20814;-57
2021/07/31 04:09:26;;;;;;;4.60;3.40;;;15.70;99.90;;;;;;4996713;28;20461;-59
2021/07/31 04:11:53;;;;;;;5.33;2.90;;;15.70;99.90;;;;;;4997636;28;20904;-58
2021/07/31 04:14:21;;;;;;;8.63;3.70;;;15.70;99.90;;;;;;4993522;28;20523;-58
2021/07/31 04:16:48;;;;;;;8.93;3.40;;;15.70;99.90;;;;;;4997464;28;20461;-58
2021/07/31 04:19:18;;;;;;;4.30;3.60;;;15.70;99.90;;;;;;5001124;28;20703;-59
2021/07/31 04:21:45;;;;;;;4.63;3.93;;;15.70;99.90;;;;;;5001144;28;20531;-57
2021/07/31 04:24:12;;;;;;;4.50;2.70;;;15.70;99.90;;;;;;5000973;28;20464;-58
2021/07/31 04:26:39;;;;;;;5.83;3.50;;;15.70;99.90;;;;;;5000979;28;20507;-58
2021/07/31 04:29:06;;;;;;;6.57;3.53;;;15.80;99.90;;;;;;5000675;28;20473;-59
2021/07/31 04:31:35;;;;;;;4.53;3.23;;;15.80;99.90;;;;;;5001309;28;20461;-57
2021/07/31 04:34:04;;;;;;;6.33;3.70;;;15.80;99.90;;;;;;5001353;28;20469;-56
2021/07/31 04:36:32;;;;;;;4.70;3.13;;;15.70;99.90;;;;;;5000894;28;20471;-57
2021/07/31 04:38:59;;;;;;;5.10;3.30;;;15.70;99.90;;;;;;4994210;28;20461;-56
2021/07/31 04:41:26;;;;;;;3.60;3.00;;;15.70;99.90;;;;;;5001171;28;20460;-55
2021/07/31 04:43:53;;;;;;;4.13;3.07;;;15.70;99.90;;;;;;5000985;28;20464;-52
2021/07/31 04:46:21;;;;;;;3.40;2.90;;;15.70;99.90;;;;;;5000644;28;20465;-58
2021/07/31 04:48:49;;;;;;;4.40;3.60;;;15.70;99.90;;;;;;5000627;28;20528;-57
2021/07/31 04:51:16;;;;;;;4.20;3.17;;;15.80;99.90;;;;;;5000336;28;20531;-58
2021/07/31 04:53:43;;;;;;;4.10;3.70;;;15.70;99.90;;;;;;5000828;28;20465;-54
2021/07/31 04:56:10;;;;;;;4.23;3.30;;;15.70;99.90;;;;;;5000053;28;20465;-58
2021/07/31 04:58:39;;;;;;;6.23;3.17;;;15.70;99.90;;;;;;5000587;28;20460;-59
2021/07/31 05:01:06;;;;;;;5.37;3.93;;;15.80;99.90;;;;;;4999997;28;20562;-58
2021/07/31 05:03:33;;;;;;;9.10;3.83;;;15.80;99.90;;;;;;4994004;28;20477;-58
2021/07/31 05:06:05;;;;;;;7.03;3.90;;;15.80;99.90;;;;;;4995928;28;20535;-58
2021/07/31 05:08:33;;;;;;;6.03;4.40;;;15.80;99.90;;;;;;4994999;28;20496;-58
2021/07/31 05:11:05;;;;;;;4.57;3.63;;;15.80;99.90;;;;;;5000206;28;20530;-56
2021/07/31 05:13:32;;;;;;;7.33;4.07;;;15.80;99.90;;;;;;4996821;28;20535;-57
2021/07/31 05:15:59;;;;;;;4.70;3.30;;;15.90;99.90;;;;;;4999793;28;20504;-54
2021/07/31 05:18:26;;;;;;;4.20;3.80;;;15.90;99.90;;;;;;5000028;28;20488;-54
2021/07/31 05:20:53;;;;;;;4.33;3.70;;;15.90;99.90;;;;;;4999642;28;20526;-55
2021/07/31 05:23:21;;;;;;;5.77;4.00;;;15.90;99.90;;;;;;5000139;28;20465;-58
2021/07/31 05:25:48;;;;;;;7.53;4.57;;;15.90;99.90;;;;;;5000131;28;20465;-58
2021/07/31 05:28:15;;;;;;;7.17;4.10;;;15.90;99.90;;;;;;4999749;28;20500;-55
2021/07/31 05:30:45;;;;;;;5.20;3.90;;;15.90;99.90;;;;;;4999670;28;20464;-54
2021/07/31 05:33:12;;;;;;;6.10;3.70;;;15.80;99.90;;;;;;5000014;28;20547;-57
2021/07/31 05:35:38;;;;;;;5.03;3.90;;;15.90;99.90;;;;;;5000359;28;20465;-52
2021/07/31 05:38:06;;;;;;;7.50;3.90;;;15.90;99.90;;;;;;4998439;28;20909;-58
2021/07/31 05:40:36;;;;;;;6.50;4.57;;;15.90;99.90;;;;;;4992825;28;20473;-58
2021/07/31 06:21:44;;;;;;;4.27;3.87;;;16.20;99.90;;;;;;5186817;23;20507;-56
2021/07/31 06:24:11;;;;;;;5.17;3.83;;;16.20;99.90;;;;;;4987310;28;20469;-56
2021/07/31 06:26:38;;;;;;;3.90;3.60;;;16.20;99.90;;;;;;4985260;28;20470;-56
2021/07/31 07:08:51;;;;;;;4.60;3.47;;;16.60;99.90;;;;;;5166807;23;20504;-56
2021/07/31 07:11:19;;;;;;;5.30;3.53;;;16.70;99.90;;;;;;4969808;28;20524;-57
2021/07/31 07:13:49;;;;;;;4.90;3.80;;;16.70;99.90;;;;;;4974462;28;20504;-52
2021/07/31 07:16:16;;;;;;;4.57;3.73;;;16.80;99.90;;;;;;4975478;28;20466;-56
2021/07/31 07:18:43;;;;;;;6.80;3.97;;;16.60;99.90;;;;;;4971467;28;20891;-53
2021/07/31 07:21:14;;;;;;;4.10;3.70;;;16.70;99.90;;;;;;4975615;28;20902;-56
2021/07/31 07:23:41;;;;;;;4.33;3.60;;;16.80;99.90;;;;;;4967521;28;20529;-54
2021/07/31 07:26:13;;;;;;;4.13;3.73;;;17.00;99.90;;;;;;4970741;28;20537;-54
2021/07/31 07:28:40;;;;;;;7.73;3.90;;;17.00;99.90;;;;;;4962257;28;20930;-54
2021/07/31 07:31:11;;;;;;;5.97;3.40;;;17.20;99.90;;;;;;4969540;28;20471;-57
2021/07/31 07:33:38;;;;;;;4.77;3.57;;;17.20;99.90;;;;;;4967989;28;20470;-56
2021/07/31 07:36:11;;;;;;;4.53;3.67;;;17.30;99.90;;;;;;4961392;28;20562;-54
2021/07/31 07:38:38;;;;;;;5.13;3.37;;;17.60;99.90;;;;;;4968438;28;20509;-57
2021/07/31 07:41:07;;;;;;;6.03;3.80;;;17.60;99.90;;;;;;4972923;28;20474;-57
2021/07/31 07:43:35;;;;;;;6.50;4.30;;;17.40;99.90;;;;;;4973827;28;20528;-56
2021/07/31 07:46:06;;;;;;;7.57;3.50;;;17.40;99.90;;;;;;4966870;28;20899;-55
2021/07/31 07:48:33;;;;;;;10.37;4.20;;;17.40;99.90;;;;;;4961497;28;20574;-56
2021/07/31 07:51:03;;;;;;;4.23;3.53;;;17.50;99.90;;;;;;4967209;28;20502;-53
2021/07/31 07:53:30;;;;;;;3.73;3.40;;;17.40;99.90;;;;;;4969879;28;20505;-55
2021/07/31 07:55:57;;;;;;;4.13;3.67;;;17.50;99.90;;;;;;4977211;28;20548;-55
2021/07/31 07:58:24;;;;;;;4.90;3.77;;;17.40;99.90;;;;;;4973741;28;20466;-55
2021/07/31 08:00:53;;;;;;;5.90;4.20;;;17.40;99.90;;;;;;4977493;28;20461;-54
2021/07/31 08:03:20;;;;;;;5.00;3.70;;;17.60;99.90;;;;;;4975337;28;20470;-50
2021/07/31 08:05:49;;;;;;;6.33;3.57;;;17.80;99.90;;;;;;4985613;28;20816;-55
2021/07/31 08:08:16;;;;;;;14.00;4.00;;;17.90;99.90;;;;;;4990214;28;20592;-55
2021/07/31 08:10:43;;;;;;;4.80;3.63;;;17.90;99.90;;;;;;4973160;28;20488;-56
2021/07/31 08:13:10;;;;;;;3.83;3.23;;;17.70;99.90;;;;;;4981858;28;20809;-55
2021/07/31 08:15:37;;;;;;;6.40;4.03;;;17.80;99.90;;;;;;4974790;28;20469;-57
2021/07/31 08:18:08;;;;;;;5.83;3.60;;;17.70;99.90;;;;;;4969671;28;20541;-55
2021/07/31 08:20:36;;;;;;;7.10;3.90;;;17.80;99.90;;;;;;4970580;28;20467;-57
2021/07/31 08:23:05;;;;;;;5.57;3.70;;;17.60;99.90;;;;;;4976610;28;20466;-57
2021/07/31 08:25:33;;;;;;;4.90;3.90;;;17.50;99.90;;;;;;4975932;28;20466;-57
2021/07/31 08:28:00;;;;;;;8.90;3.90;;;17.80;99.90;;;;;;4974979;28;20490;-57
2021/07/31 08:30:29;;;;;;;6.00;3.93;;;18.10;99.90;;;;;;4969921;28;20805;-57
2021/07/31 08:32:56;;;;;;;5.47;3.10;;;18.10;99.90;;;;;;4971922;28;21778;-54
2021/07/31 08:35:25;;;;;;;7.90;3.70;;;18.10;99.90;;;;;;4975267;28;20883;-54
2021/07/31 08:37:52;;;;;;;4.20;3.50;;;18.40;99.90;;;;;;4968954;28;20517;-56
2021/07/31 08:40:19;;;;;;;4.60;3.97;;;19.50;99.90;;;;;;4974772;28;20469;-52
2021/07/31 08:42:46;;;;;;;4.33;3.63;;;20.00;99.90;;;;;;4977862;28;20469;-51
2021/07/31 08:45:19;;;;;;;4.80;3.40;;;20.30;97.30;;;;;;4967220;28;20474;-51
2021/07/31 08:47:47;;;;;;;4.37;3.47;;;20.90;94.60;;;;;;4975460;28;20498;-54
2021/07/31 08:50:15;;;;;;;5.00;4.07;;;20.80;91.90;;;;;;4975212;28;20838;-52
2021/07/31 08:52:48;;;;;;;6.60;3.90;;;20.00;93.20;;;;;;4980837;28;20465;-56
2021/07/31 08:55:17;;;;;;;6.80;4.20;;;19.50;96.30;;;;;;4981049;28;20474;-55
2021/07/31 08:57:48;;;;;;;4.37;3.40;;;18.80;97.30;;;;;;4979335;28;20520;-53
2021/07/31 09:00:15;;;;;;;5.70;4.20;;;18.40;99.60;;;;;;4979054;28;20537;-54
2021/07/31 09:02:44;;;;;;;3.97;3.50;;;18.30;99.90;;;;;;4976090;28;20517;-56
2021/07/31 09:05:28;;;;;;;8.33;4.30;;;18.30;99.90;;;;;;4975662;28;20758;-54
2021/07/31 09:08:03;;;;;;;5.80;4.17;;;18.20;99.90;;;;;;4982284;28;20890;-56
2021/07/31 09:10:32;;;;;;;4.97;4.13;;;18.30;99.90;;;;;;4959813;29;20465;-56
2021/07/31 09:13:01;;;;;;;7.67;4.03;;;18.10;99.90;;;;;;4970844;28;20461;-57
2021/07/31 09:15:33;;;;;;;4.97;3.63;;;18.00;99.90;;;;;;4999790;28;20472;-53
2021/07/31 09:18:30;;;;;;;4.80;3.50;;;18.00;99.90;;;;;;4998781;28;20472;-56
2021/07/31 09:21:03;;;;;;;4.40;3.27;;;18.20;99.90;;;;;;4998299;28;20460;-55
2021/07/31 09:23:54;;;;;;;6.80;3.30;;;18.30;99.90;;;;;;4980511;28;20522;-56
2021/07/31 09:26:25;;;;;;;5.00;4.10;;;18.50;99.90;;;;;;4975939;28;20534;-57
2021/07/31 09:29:01;;;;;;;6.20;3.47;;;18.60;99.90;;;;;;4980472;28;21013;-56
2021/07/31 09:31:28;;;;;;;9.67;3.93;;;18.60;99.90;;;;;;4981107;28;20835;-53
2021/07/31 09:33:58;;;;;;;5.03;3.70;;;18.60;99.90;;;;;;4981138;28;20478;-54
2021/07/31 09:36:34;;;;;;;4.90;3.83;;;18.50;99.90;;;;;;4980201;28;20465;-52
2021/07/31 09:39:03;;;;;;;4.90;3.67;;;18.30;99.90;;;;;;4988570;28;20735;-56
2021/07/31 09:41:34;;;;;;;4.07;3.50;;;18.20;99.90;;;;;;5000145;28;20471;-57
2021/07/31 09:44:06;;;;;;;6.60;4.40;;;18.20;99.90;;;;;;4998749;28;20890;-55
2021/07/31 09:46:37;;;;;;;5.30;3.70;;;18.30;99.90;;;;;;4999831;28;20469;-54
2021/07/31 09:49:05;;;;;;;6.87;3.53;;;18.70;99.90;;;;;;4999363;28;20519;-56
2021/07/31 09:51:35;;;;;;;3.80;3.27;;;18.90;99.90;;;;;;4999925;28;20475;-57
2021/07/31 09:54:07;;;;;;;4.00;3.60;;;18.80;99.90;;;;;;5000000;28;20472;-57
2021/07/31 09:56:49;;;;;;;6.93;3.93;;;18.70;99.90;;;;;;4999496;28;20464;-57
2021/07/31 09:59:17;;;;;;;4.70;3.80;;;18.50;99.90;;;;;;4999268;28;20519;-57
2021/07/31 10:01:46;;;;;;;3.17;2.87;;;18.40;99.90;;;;;;4993909;28;20462;-56
2021/07/31 10:04:13;;;;;;;5.03;3.27;;;18.50;99.90;;;;;;4964698;28;20474;-56
2021/07/31 10:06:42;;;;;;;4.23;3.57;;;18.60;99.90;;;;;;4979584;28;20517;-57
2021/07/31 10:09:12;;;;;;;4.27;3.87;;;19.30;99.90;;;;;;4979357;28;20499;-57
2021/07/31 10:11:41;;;;;;;3.57;3.27;;;20.00;99.00;;;;;;4980012;28;20524;-56
2021/07/31 10:14:09;;;;;;;5.03;2.80;;;19.90;97.40;;;;;;4979715;28;20458;-57
2021/07/31 10:16:43;;;;;;;5.80;4.03;;;19.60;98.00;;;;;;4979449;28;20564;-58
2021/07/31 10:19:11;;;;;;;3.43;3.13;;;19.20;99.80;;;;;;4980179;28;20462;-57
2021/07/31 10:21:52;;;;;;;6.10;4.10;;;19.30;99.90;;;;;;4979592;28;20462;-57
2021/07/31 10:24:21;;;;;;;3.90;3.70;;;19.00;99.90;;;;;;4979428;28;20889;-57
2021/07/31 10:27:23;;;;;;;3.20;2.90;;;18.80;99.50;;;;;;4979796;28;20521;-56
2021/07/31 10:29:53;;;;;;;5.63;5.13;;;18.40;99.90;;;;;;4969058;28;20501;-57
2021/07/31 10:32:42;;;;;;;5.73;3.80;;;18.30;99.90;;;;;;4980130;28;20965;-58
2021/07/31 10:35:27;;;;;;;4.60;3.23;;;18.30;99.90;;;;;;4979065;28;20470;-57
2021/07/31 10:37:56;;;;;;;7.63;3.87;;;18.30;99.90;;;;;;4979618;28;20462;-57
2021/07/31 10:40:58;;;;;;;7.93;3.53;;;18.60;99.90;;;;;;4960060;29;20521;-57
2021/07/31 10:43:29;;;;;;;7.33;3.70;;;18.90;99.90;;;;;;4960581;29;20814;-57
2021/07/31 10:46:25;;;;;;;5.43;3.87;;;19.30;99.90;;;;;;4959677;29;20561;-56
2021/07/31 10:48:52;;;;;;;7.20;3.40;;;19.70;99.40;;;;;;4959777;29;20498;-56
2021/07/31 10:51:44;;;;;;;4.27;3.43;;;20.30;97.40;;;;;;4959901;29;20501;-52
2021/07/31 10:54:11;;;;;;;6.33;3.13;;;20.90;92.70;;;;;;4978175;28;20472;-50
2021/07/31 10:57:01;;;;;;;3.50;3.20;;;20.70;91.20;;;;;;4998667;28;20465;-53
2021/07/31 10:59:30;;;;;;;3.77;3.47;;;20.40;91.40;;;;;;4998804;28;20467;-50
2021/07/31 11:02:37;;;;;;;5.40;3.43;;;20.00;92.40;;;;;;4997480;28;20500;-53
2021/07/31 11:05:05;;;;;;;3.70;3.40;;;19.50;94.50;;;;;;4974290;28;20544;-54
2021/07/31 11:08:04;;;;;;;6.20;3.77;;;19.20;96.80;;;;;;4983900;28;20496;-56
2021/07/31 11:10:39;;;;;;;4.47;3.50;;;19.10;97.60;;;;;;4959703;29;20905;-52
2021/07/31 11:13:10;;;;;;;5.30;3.00;;;19.30;99.50;;;;;;4971413;28;20457;-55
2021/07/31 11:15:37;;;;;;;5.03;3.03;;;19.80;96.90;;;;;;4998057;28;20469;-58
2021/07/31 11:18:09;;;;;;;5.27;3.73;;;20.00;93.70;;;;;;4997874;28;20623;-52
2021/07/31 11:20:43;;;;;;;6.80;3.23;;;19.60;93.40;;;;;;4997632;28;20711;-53
2021/07/31 11:23:10;;;;;;;5.13;3.40;;;19.40;93.90;;;;;;4995276;28;20461;-55
2021/07/31 11:25:38;;;;;;;5.60;3.10;;;19.40;94.60;;;;;;4993939;28;20527;-55
2021/07/31 11:28:10;;;;;;;5.70;2.97;;;19.40;94.00;;;;;;4973812;28;20573;-52
2021/07/31 11:30:39;;;;;;;5.43;3.23;;;19.80;92.50;;;;;;4966764;28;20471;-54
2021/07/31 11:33:25;;;;;;;4.87;3.50;;;20.90;90.00;;;;;;4968155;28;20470;-54
2021/07/31 11:35:54;;;;;;;3.93;3.50;;;22.00;85.30;;;;;;4961304;28;20566;-49
2021/07/31 11:38:29;;;;;;;3.80;2.93;;;22.90;76.70;;;;;;4972089;28;20473;-57
2021/07/31 11:41:00;;;;;;;5.40;2.90;;;22.90;72.70;;;;;;4968454;28;20528;-57
2021/07/31 12:20:30;;;;;;;6.43;3.53;;;22.20;77.50;;;;;;5466598;23;20485;31
2021/07/31 12:22:58;;;;;;;4.00;2.90;;;22.50;74.80;;;;;;4918205;29;20492;-57
2021/07/31 12:25:26;;;;;;;5.87;2.87;;;23.20;74.80;;;;;;4920973;29;20528;-57
2021/07/31 12:28:05;;;;;;;3.83;3.10;;;23.60;71.10;;;;;;4920205;29;20468;-58
2021/07/31 12:30:39;;;;;;;5.07;2.90;;;24.20;65.10;;;;;;4921030;29;20959;-57
2021/07/31 12:33:16;;;;;;;3.77;3.17;;;24.20;66.80;;;;;;4920559;29;20465;-57
2021/07/31 12:35:45;;;;;;;4.83;3.83;;;23.60;66.50;;;;;;4920549;29;20472;-57
2021/07/31 12:38:20;;;;;;;5.47;3.53;;;23.00;67.50;;;;;;4920562;29;20472;-57
2021/07/31 12:40:55;;;;;;;5.30;3.70;;;22.40;69.10;;;;;;4924213;29;20901;-57
2021/07/31 12:43:24;;;;;;;4.93;3.40;;;22.20;70.80;;;;;;4924333;29;20741;-57
2021/07/31 12:45:52;;;;;;;3.77;3.30;;;22.00;73.70;;;;;;4924067;29;20579;-56
2021/07/31 12:48:20;;;;;;;3.17;2.90;;;21.90;74.80;;;;;;4923855;29;20471;-57
2021/07/31 12:50:50;;;;;;;6.50;2.93;;;21.50;75.70;;;;;;4924117;29;20778;-56
2021/07/31 12:53:21;;;;;;;4.80;3.80;;;21.20;78.20;;;;;;4923711;29;20532;-56
2021/07/31 12:55:48;;;;;;;8.33;3.77;;;21.20;78.50;;;;;;4924045;29;20474;-55
2021/07/31 12:58:20;;;;;;;3.63;2.70;;;21.00;79.40;;;;;;4923504;29;20524;-48
2021/07/31 13:00:48;;;;;;;3.20;2.80;;;20.90;78.70;;;;;;4923736;29;20465;-55
2021/07/31 13:03:19;;;;;;;3.60;3.30;;;20.80;78.50;;;;;;4917240;29;20493;-55
2021/07/31 13:05:49;;;;;;;6.20;3.80;;;20.60;80.50;;;;;;4920224;29;20817;-54
2021/07/31 13:08:16;;;;;;;4.00;3.60;;;20.60;82.20;;;;;;4922388;29;20480;-51
2021/07/31 13:10:49;;;;;;;7.13;3.43;;;20.30;82.10;;;;;;4922115;29;20496;-49
2021/07/31 13:13:16;;;;;;;6.23;3.83;;;20.30;81.70;;;;;;4914979;29;20513;-53
2021/07/31 13:15:44;;;;;;;6.20;3.77;;;20.30;82.50;;;;;;4913732;29;20468;-53
2021/07/31 13:18:14;;;;;;;5.17;4.03;;;20.10;83.10;;;;;;4922744;29;20473;-50
2021/07/31 13:20:50;;;;;;;4.70;3.40;;;20.00;84.20;;;;;;4926443;29;20494;-53
2021/07/31 13:23:19;;;;;;;4.10;3.67;;;20.00;84.30;;;;;;4923382;29;20902;-56
2021/07/31 13:25:46;;;;;;;3.40;3.10;;;19.90;85.50;;;;;;4923103;29;20468;-52
2021/07/31 13:28:16;;;;;;;4.90;4.10;;;19.90;85.90;;;;;;4923351;29;20469;-49
2021/07/31 13:30:44;;;;;;;3.73;3.43;;;19.90;86.90;;;;;;4923110;29;20501;-53
2021/07/31 13:33:11;;;;;;;3.90;3.60;;;19.80;89.20;;;;;;4922826;29;20906;-50
2021/07/31 14:14:59;;;;;;;4.43;3.63;;;21.70;79.40;;;;;;5015760;28;20468;-53
2021/07/31 14:17:33;;;;;;;4.23;3.40;;;21.50;78.60;;;;;;5018870;28;20748;-53
2021/07/31 14:20:00;;;;;;;3.13;2.93;;;21.30;78.30;;;;;;5019018;28;20467;-57
2021/07/31 14:22:27;;;;;;;4.20;3.60;;;21.30;79.10;;;;;;5010157;28;20460;-53
2021/07/31 14:24:57;;;;;;;3.20;2.90;;;21.20;79.40;;;;;;5018747;28;20466;-56
2021/07/31 14:27:27;;;;;;;3.97;3.53;;;21.00;81.50;;;;;;5018359;28;20464;-56
2021/07/31 14:29:54;;;;;;;3.93;3.30;;;21.20;81.60;;;;;;5017791;28;20554;-56
2021/07/31 14:32:25;;;;;;;4.60;3.47;;;20.90;82.90;;;;;;5018370;28;20503;-57
2021/07/31 14:34:52;;;;;;;4.07;3.67;;;21.00;84.00;;;;;;5018761;28;20538;-57
2021/07/31 14:37:19;;;;;;;3.80;3.50;;;21.00;85.20;;;;;;5018277;28;20464;-57
2021/07/31 14:39:55;;;;;;;8.03;3.63;;;21.00;85.60;;;;;;5009674;28;20437;-57
2021/07/31 14:42:22;;;;;;;3.97;3.60;;;21.30;86.60;;;;;;5019091;28;20463;-57
2021/07/31 14:44:54;;;;;;;3.33;3.07;;;21.60;83.00;;;;;;5018548;28;20745;-56
2021/07/31 14:47:23;;;;;;;3.70;3.30;;;21.80;81.10;;;;;;5017995;28;20464;-57
2021/07/31 14:49:50;;;;;;;3.73;3.20;;;22.00;81.70;;;;;;5018079;28;20492;-57
2021/07/31 14:52:20;;;;;;;3.70;3.30;;;22.30;78.90;;;;;;5018265;28;20538;-57
2021/07/31 14:54:47;;;;;;;3.30;3.00;;;22.60;75.50;;;;;;5018519;28;20894;-55
2021/07/31 14:57:14;;;;;;;3.57;3.27;;;22.60;74.00;;;;;;5017539;28;20468;-56
2021/07/31 14:59:43;;;;;;;3.87;3.30;;;22.70;75.00;;;;;;5017848;28;20468;-55
2021/07/31 15:02:10;;;;;;;3.40;3.10;;;22.30;74.10;;;;;;5017311;28;20463;-54
2021/07/31 15:04:39;;;;;;;3.53;3.23;;;22.30;75.70;;;;;;4997351;28;20468;-54
2021/07/31 15:07:06;;;;;;;3.90;3.60;;;22.10;75.00;;;;;;5006462;28;20555;-57
2021/07/31 15:09:33;;;;;;;3.30;3.00;;;22.20;76.50;;;;;;5006181;28;20516;-57
2021/07/31 15:12:03;;;;;;;4.47;4.07;;;22.20;75.60;;;;;;5008331;28;20838;-57
2021/07/31 15:14:33;;;;;;;3.10;2.90;;;22.40;76.60;;;;;;5009294;28;20495;-54
2021/07/31 15:17:00;;;;;;;4.80;3.50;;;22.50;75.30;;;;;;5007581;28;20560;-52
2021/07/31 15:19:28;;;;;;;3.67;3.37;;;22.60;75.90;;;;;;5006123;28;20961;-56
2021/07/31 15:21:59;;;;;;;3.37;3.07;;;22.40;74.30;;;;;;5006638;28;20457;-57
2021/07/31 15:24:26;;;;;;;3.90;3.60;;;22.50;74.70;;;;;;5009901;28;20526;-57
2021/07/31 15:26:56;;;;;;;3.67;3.40;;;22.20;75.70;;;;;;5008471;28;20800;-57
2021/07/31 15:29:23;;;;;;;4.27;3.50;;;21.80;75.60;;;;;;5005955;28;20496;-56
2021/07/31 15:31:52;;;;;;;3.60;3.30;;;21.60;77.30;;;;;;5006812;28;20473;-57